Time;durP1;ratioP1;P1;durP2;ratioP2;P2;SDS_P1;SDS_P2;PMS_P1;PMS_P2;Temp;Humidity;BMP_temperature;BMP_pressure;BME280_temperature;BME280_humidity;BME280_pressure;Samples;Min_cycle;Max_cycle;Signal;HPM_P1;HPM_P2
2022/12/09 00:05:23;;;;;;;22.48;10.95;;;;;;;9.52;62.09;98386.64;4281161;82;28538;-81
2022/12/09 00:11:25;;;;;;;24.87;11.88;;;;;;;9.55;62.20;98388.32;4243743;82;28462;-80
2022/12/09 00:17:26;;;;;;;22.30;11.75;;;;;;;9.43;62.17;98388.91;4254875;82;28546;-80
2022/12/09 00:23:29;;;;;;;20.35;10.15;;;;;;;9.61;58.85;98394.59;4248594;82;28486;-81
2022/12/09 00:29:30;;;;;;;23.22;11.50;;;;;;;9.87;60.19;98390.49;4267564;82;28538;-81
2022/12/09 00:35:32;;;;;;;22.67;10.75;;;;;;;10.27;58.99;98391.42;4265888;82;28523;-82
2022/12/09 00:41:33;;;;;;;19.70;10.18;;;;;;;10.07;59.13;98393.78;4273247;82;28547;-83
2022/12/09 00:47:34;;;;;;;21.15;10.20;;;;;;;9.92;59.78;98407.22;4265209;82;28543;-83
2022/12/09 00:53:36;;;;;;;19.12;10.25;;;;;;;10.02;60.53;98404.70;4273070;82;28528;-84
2022/12/09 00:59:38;;;;;;;21.12;9.98;;;;;;;9.89;61.27;98411.23;4228525;82;28585;-83
2022/12/09 01:05:40;;;;;;;21.97;11.20;;;;;;;9.84;62.15;98412.98;4229230;82;28517;-84
2022/12/09 01:11:42;;;;;;;22.32;11.18;;;;;;;9.85;61.05;98414.63;4261301;81;28529;-82
2022/12/09 01:17:43;;;;;;;24.60;13.10;;;;;;;9.83;60.50;98417.55;4220509;82;28474;-84
2022/12/09 01:23:45;;;;;;;25.77;13.80;;;;;;;9.63;60.54;98425.52;4236256;82;28575;-84
2022/12/09 01:29:46;;;;;;;27.20;12.73;;;;;;;9.54;60.96;98417.55;4240637;84;28594;-85
2022/12/09 01:35:47;;;;;;;24.98;12.18;;;;;;;9.56;61.70;98411.42;4279285;82;28484;-83
2022/12/09 01:41:50;;;;;;;34.00;17.05;;;;;;;9.49;62.71;98411.56;4240994;81;28946;-82
2022/12/09 01:48:14;;;;;;;37.05;19.48;;;;;;;9.70;61.58;98416.52;4276516;82;28587;-82
2022/12/09 01:54:18;;;;;;;39.03;19.17;;;;;;;9.41;62.45;98418.64;4285680;82;28597;-83
2022/12/09 02:00:20;;;;;;;35.30;18.10;;;;;;;9.57;62.19;98429.69;4254993;82;28470;-83
2022/12/09 02:06:24;;;;;;;32.58;17.70;;;;;;;9.42;63.12;98411.42;4254844;83;28526;-83
2022/12/09 02:13:00;;;;;;;35.83;18.77;;;;;;;9.50;63.15;98408.37;4251411;83;28495;-83
2022/12/09 02:19:38;;;;;;;31.95;16.37;;;;;;;9.53;62.76;98404.37;4253548;82;28530;-83
2022/12/09 02:25:47;;;;;;;32.78;16.20;;;;;;;9.67;62.76;98392.81;4253405;82;28528;-85
2022/12/09 02:32:11;;;;;;;30.80;15.40;;;;;;;9.38;63.58;98392.84;4251541;82;28518;-84
2022/12/09 02:38:23;;;;;;;25.55;13.58;;;;;;;9.39;63.51;98393.93;4271312;82;28522;-82
2022/12/09 02:44:26;;;;;;;28.35;13.85;;;;;;;9.61;62.95;98387.38;4252654;84;28526;-83
2022/12/09 02:50:33;;;;;;;27.30;13.40;;;;;;;9.39;64.08;98381.86;4275539;82;28491;-83
2022/12/09 02:56:36;;;;;;;22.87;12.20;;;;;;;9.31;64.42;98383.06;4242464;84;28523;-84
2022/12/09 03:02:42;;;;;;;22.30;11.97;;;;;;;9.43;63.78;98384.37;4242051;84;28495;-82
2022/12/09 03:08:50;;;;;;;;;;;;;;;9.21;64.55;98386.88;4200033;82;28546;-81
2022/12/09 03:14:53;;;;;;;20.10;10.78;;;;;;;9.10;65.37;98389.88;4236969;82;20264;-82
2022/12/09 03:20:54;;;;;;;22.32;12.10;;;;;;;9.05;65.66;98385.77;4257886;82;28499;-83
2022/12/09 03:26:58;;;;;;;21.70;11.60;;;;;;;9.00;65.80;98373.06;4279484;82;28504;-83
2022/12/09 03:33:02;;;;;;;23.85;12.07;;;;;;;9.10;65.04;98367.63;4315597;82;28515;-82
2022/12/09 03:39:07;;;;;;;21.68;11.33;;;;;;;9.03;65.24;98361.86;4242406;82;28547;-82
2022/12/09 03:45:11;;;;;;;23.60;11.70;;;;;;;9.00;65.16;98362.34;4221368;84;28531;-81
2022/12/09 03:51:39;;;;;;;25.10;13.28;;;;;;;8.90;65.73;98367.50;4247262;82;28484;-81
2022/12/09 03:57:43;;;;;;;25.82;13.48;;;;;;;8.82;66.02;98367.86;4230522;82;28543;-83
2022/12/09 04:03:48;;;;;;;25.27;13.78;;;;;;;9.18;64.62;98368.59;4144598;82;28501;-82
2022/12/09 04:09:49;;;;;;;30.80;15.10;;;;;;;8.90;65.30;98371.52;4211112;84;28503;-83
2022/12/09 04:15:51;;;;;;;29.27;15.35;;;;;;;8.83;65.30;98374.33;4267055;82;28464;-83
2022/12/09 04:21:52;;;;;;;33.98;16.70;;;;;;;8.79;65.27;98367.80;4333231;81;28457;-83
2022/12/09 04:27:53;;;;;;;38.55;19.40;;;;;;;8.58;65.88;98370.58;4214921;83;28529;-86
2022/12/09 04:33:55;;;;;;;52.93;25.92;;;;;;;8.42;65.86;98376.09;4243016;83;28503;-86
2022/12/09 04:39:56;;;;;;;45.85;23.65;;;;;;;8.46;65.72;98380.75;4242989;84;28554;-87
2022/12/09 04:46:02;;;;;;;48.02;21.95;;;;;;;8.57;65.49;98379.13;4226299;82;28475;-85
2022/12/09 04:52:04;;;;;;;43.95;21.33;;;;;;;8.32;65.76;98377.48;4232068;82;28509;-84
2022/12/09 04:58:06;;;;;;;43.55;20.20;;;;;;;8.25;66.62;98384.00;4238796;82;28551;-85
2022/12/09 05:04:07;;;;;;;42.88;20.30;;;;;;;7.94;66.78;98380.05;4230986;82;28530;-87
2022/12/09 05:10:10;;;;;;;42.33;20.88;;;;;;;7.84;67.46;98384.64;4249734;82;28509;-85
2022/12/09 05:16:15;;;;;;;40.55;19.95;;;;;;;7.99;66.37;98387.39;4224011;82;28483;-88
2022/12/09 05:22:17;;;;;;;45.78;21.48;;;;;;;7.64;66.96;98382.24;4258766;82;28518;-87
2022/12/09 05:28:18;;;;;;;45.43;21.60;;;;;;;7.30;68.15;98375.20;4266561;82;28522;-88
2022/12/09 05:34:19;;;;;;;44.75;20.75;;;;;;;6.98;71.74;98378.36;4265735;82;28503;-86
2022/12/09 05:40:21;;;;;;;45.10;20.27;;;;;;;7.07;70.50;98370.84;4303377;82;28460;-84
2022/12/09 05:46:22;;;;;;;40.15;19.87;;;;;;;6.80;70.56;98384.54;4308578;81;28530;-86
2022/12/09 05:52:23;;;;;;;43.25;20.82;;;;;;;6.93;70.29;98379.57;4266952;82;28526;-85
2022/12/09 05:58:25;;;;;;;45.00;21.73;;;;;;;7.38;67.59;98378.37;4260670;82;28463;-83
2022/12/09 06:04:26;;;;;;;45.55;21.73;;;;;;;6.76;68.93;98369.97;4265857;82;28538;-83
2022/12/09 06:10:28;;;;;;;39.20;20.52;;;;;;;6.44;71.30;98373.30;4265479;82;28573;-82
2022/12/09 06:16:30;;;;;;;40.90;20.48;;;;;;;6.15;71.40;98379.11;4265269;82;28567;-82
2022/12/09 06:22:31;;;;;;;45.88;23.50;;;;;;;6.24;70.17;98379.64;4261860;82;28523;-82
2022/12/09 06:28:33;;;;;;;45.58;22.32;;;;;;;6.28;71.67;98384.33;4265692;82;28522;-82
2022/12/09 06:34:34;;;;;;;43.68;21.42;;;;;;;6.04;72.38;98387.30;4257518;82;28526;-84
2022/12/09 06:40:41;;;;;;;42.00;22.52;;;;;;;5.68;71.75;98388.77;4268021;82;28464;-85
2022/12/09 06:46:42;;;;;;;45.90;22.62;;;;;;;5.77;73.93;98394.66;4256218;83;28549;-85
2022/12/09 06:52:43;;;;;;;46.65;22.13;;;;;;;5.78;74.62;98394.45;4196261;83;28459;-87
2022/12/09 06:58:54;;;;;;;53.23;29.90;;;;;;;5.77;74.91;98387.98;4528509;76;274619;-85
2022/12/09 07:04:56;;;;;;;48.00;23.57;;;;;;;6.28;71.54;98386.17;4535603;78;28945;-86
2022/12/09 07:10:57;;;;;;;42.38;22.30;;;;;;;6.05;71.22;98390.80;4530613;78;28555;-85
2022/12/09 07:16:59;;;;;;;43.70;22.67;;;;;;;5.84;72.64;98396.77;4428441;78;28496;-86
2022/12/09 07:23:00;;;;;;;43.80;21.60;;;;;;;6.57;69.37;98388.39;4351168;81;28514;-84
2022/12/09 07:29:02;;;;;;;41.83;20.00;;;;;;;5.99;73.30;98369.77;4437099;78;28939;-86
2022/12/09 07:35:06;;;;;;;38.55;19.60;;;;;;;5.83;74.94;98363.92;4444130;79;28586;-89
2022/12/09 07:41:09;;;;;;;39.80;20.60;;;;;;;5.94;73.76;98352.25;4362878;81;28529;-87
2022/12/09 07:47:10;;;;;;;38.67;18.55;;;;;;;5.95;74.81;98350.70;4352568;81;28967;-88
2022/12/09 07:53:11;;;;;;;37.08;18.40;;;;;;;6.10;74.85;98349.08;4365913;81;28486;-89
2022/12/09 07:59:13;;;;;;;36.00;18.87;;;;;;;6.09;74.60;98347.44;4351614;81;28591;-84
2022/12/09 08:05:14;;;;;;;35.33;17.50;;;;;;;6.29;74.27;98342.41;4360801;80;28457;-84
2022/12/09 08:11:18;;;;;;;34.43;17.50;;;;;;;6.07;77.07;98344.16;4447542;80;28605;-89
2022/12/09 08:17:20;;;;;;;36.10;17.45;;;;;;;6.42;75.78;98354.83;4424908;80;28538;-81
2022/12/09 08:23:21;;;;;;;35.15;18.30;;;;;;;6.45;75.79;98357.05;4444739;79;28501;-86
2022/12/09 08:29:22;;;;;;;36.40;18.87;;;;;;;6.28;77.66;98353.63;4430909;80;28506;-88
2022/12/09 08:35:23;;;;;;;38.30;19.05;;;;;;;6.59;77.18;98364.94;4450006;79;28596;-87
2022/12/09 08:41:36;;;;;;;42.35;20.72;;;;;;;6.55;77.88;98357.88;4432357;80;28489;-91
2022/12/09 08:47:40;;;;;;;46.98;23.00;;;;;;;6.69;79.85;98354.02;4323130;82;44486;-87
2022/12/09 08:53:41;;;;;;;42.70;21.33;;;;;;;6.90;79.26;98350.59;4442689;78;28528;-86
2022/12/09 08:59:43;;;;;;;46.10;24.20;;;;;;;7.40;77.88;98354.09;4358454;81;28553;-87
2022/12/09 09:05:44;;;;;;;48.20;25.52;;;;;;;7.23;79.04;98354.70;4443650;80;28509;-88
2022/12/09 09:11:45;;;;;;;46.42;23.83;;;;;;;7.45;78.49;98350.73;4367964;81;28515;-85
2022/12/09 09:17:46;;;;;;;45.70;22.98;;;;;;;7.72;75.74;98335.09;4339656;81;28562;-86
2022/12/09 09:23:47;;;;;;;44.55;22.52;;;;;;;7.72;74.42;98335.09;4367189;81;28500;-87
2022/12/09 09:29:48;;;;;;;43.73;22.58;;;;;;;7.97;72.38;98345.32;4355428;81;28511;-85
2022/12/09 09:35:57;;;;;;;48.33;20.10;;;;;;;7.90;71.83;98342.22;4359916;81;28526;-86
2022/12/09 09:42:00;;;;;;;42.25;21.62;;;;;;;8.17;68.49;98331.08;4332556;80;28565;-88
2022/12/09 09:48:02;;;;;;;43.95;20.75;;;;;;;8.18;68.54;98323.33;4355662;80;28560;-85
2022/12/09 09:54:03;;;;;;;36.38;19.15;;;;;;;8.40;67.72;98305.86;4380887;79;28486;-86
2022/12/09 10:00:08;;;;;;;34.43;16.97;;;;;;;8.57;66.79;98312.14;4360019;80;28481;-85
2022/12/09 10:06:15;;;;;;;35.52;16.93;;;;;;;8.46;64.28;98311.09;4382826;79;28571;-86
2022/12/09 10:12:25;;;;;;;39.95;17.82;;;;;;;8.79;63.88;98298.94;4414062;79;28561;-86
2022/12/09 10:18:35;;;;;;;37.40;17.02;;;;;;;8.47;63.33;98298.50;4326325;82;28511;-85
2022/12/09 10:24:40;;;;;;;29.90;17.25;;;;;;;8.97;63.07;98283.73;4336734;82;28516;-84
2022/12/09 10:30:42;;;;;;;42.78;19.87;;;;;;;8.92;62.96;98284.45;4331004;81;28729;-84
2022/12/09 10:36:44;;;;;;;39.73;18.67;;;;;;;8.96;63.67;98272.73;4344639;82;28555;-85
2022/12/09 10:49:19;;;;;;;34.10;16.77;;;;;;;9.26;63.05;98262.23;4346883;82;28532;-85
2022/12/09 10:55:29;;;;;;;30.43;14.33;;;;;;;9.53;62.00;98252.75;4346548;81;28526;-85
2022/12/09 11:01:51;;;;;;;32.20;15.95;;;;;;;9.57;61.29;98252.02;4353456;81;28520;-84
2022/12/09 11:07:55;;;;;;;26.02;14.05;;;;;;;9.80;60.12;98258.30;4335608;81;28549;-85
2022/12/09 11:13:56;;;;;;;22.60;12.13;;;;;;;10.09;58.97;98255.48;4436075;79;28584;-85
2022/12/09 11:20:11;;;;;;;23.95;10.58;;;;;;;10.19;58.02;98244.08;4358757;81;28496;-83
2022/12/09 11:33:26;;;;;;;20.62;10.82;;;;;;;10.22;56.83;98250.29;4358713;82;28561;-87
2022/12/09 11:39:30;;;;;;;16.52;8.78;;;;;;;9.94;56.42;98257.95;4328085;82;28482;-83
2022/12/09 11:45:37;;;;;;;17.27;10.10;;;;;;;10.08;55.84;98249.03;4356870;81;28513;-85
2022/12/09 11:51:41;;;;;;;19.67;11.18;;;;;;;9.95;55.52;98246.98;4334336;81;28592;-84
2022/12/09 11:57:51;;;;;;;21.07;11.18;;;;;;;10.17;55.23;98242.17;4302970;82;28643;-83
2022/12/09 12:04:05;;;;;;;20.85;10.53;;;;;;;10.10;56.02;98236.16;4316570;82;28482;-84
2022/12/09 12:10:24;;;;;;;18.30;10.25;;;;;;;9.89;55.73;98238.04;4312428;81;28588;-89
2022/12/09 12:16:47;;;;;;;16.32;9.70;;;;;;;9.74;55.59;98209.61;4268166;81;28498;-88
2022/12/09 12:23:21;;;;;;;18.70;10.08;;;;;;;9.84;55.27;98191.48;4337784;80;28517;-88
2022/12/09 12:29:28;;;;;;;19.27;10.05;;;;;;;9.97;55.21;98171.53;4286060;81;28591;-87
2022/12/09 12:35:44;;;;;;;16.77;9.53;;;;;;;10.10;55.03;98178.42;4318939;81;28469;-88
2022/12/09 12:41:55;;;;;;;16.85;9.35;;;;;;;10.12;55.06;98186.52;4323371;81;28594;-87
2022/12/09 12:48:02;;;;;;;17.37;9.13;;;;;;;10.23;54.53;98167.84;4306446;81;28583;-89
2022/12/09 12:54:23;;;;;;;19.70;9.98;;;;;;;10.32;54.43;98167.13;4311885;81;28474;-92
2022/12/09 13:00:28;;;;;;;16.75;8.78;;;;;;;10.34;53.20;98166.89;4340030;80;28504;-86
2022/12/09 13:06:42;;;;;;;17.62;8.55;;;;;;;10.41;54.08;98159.98;4336142;80;28525;-87
2022/12/09 13:13:00;;;;;;;20.88;9.78;;;;;;;9.96;54.58;98146.56;4363775;80;28496;-89
2022/12/09 13:19:07;;;;;;;18.30;9.70;;;;;;;9.79;54.04;98156.53;4352622;80;28605;-87
2022/12/09 13:25:15;;;;;;;25.32;11.15;;;;;;;9.54;55.30;98149.75;4370984;80;28578;-88
2022/12/09 13:31:19;;;;;;;24.70;11.65;;;;;;;9.53;57.74;98140.05;4366025;80;28524;-88
2022/12/09 13:37:58;;;;;;;;;;;;;;;;;;;;;
2022/12/09 13:44:17;;;;;;;22.00;10.50;;;;;;;9.25;59.57;98110.41;4365149;80;28521;-88
2022/12/09 13:50:36;;;;;;;21.12;11.25;;;;;;;9.96;59.06;98109.48;4354074;80;28626;-91
2022/12/09 14:03:15;;;;;;;22.37;10.20;;;;;;;9.52;59.08;98107.05;4328473;82;28468;-89
2022/12/09 14:09:26;;;;;;;23.10;9.48;;;;;;;9.31;59.42;98093.35;4353449;81;28593;-90
2022/12/09 14:15:31;;;;;;;24.77;10.25;;;;;;;9.46;59.82;98079.86;4352835;81;28571;-90
2022/12/09 14:21:32;;;;;;;24.37;10.20;;;;;;;9.16;60.10;98093.93;4328705;82;28579;-91
2022/12/09 14:27:33;;;;;;;21.02;10.28;;;;;;;9.47;60.11;98101.09;4346671;81;28506;-90
2022/12/09 14:33:44;;;;;;;18.50;9.63;;;;;;;9.34;60.38;98090.16;4327690;82;28993;-92
2022/12/09 14:39:52;;;;;;;18.00;8.63;;;;;;;9.30;60.56;98087.70;4328066;81;28528;-91
2022/12/09 14:45:56;;;;;;;18.12;8.88;;;;;;;9.25;60.65;98091.64;4344711;81;28579;-92
2022/12/09 14:52:03;;;;;;;16.00;8.95;;;;;;;9.44;61.28;98096.22;4355457;81;28524;-92
2022/12/09 14:58:04;;;;;;;17.60;8.78;;;;;;;9.12;61.23;98104.88;4356899;81;28548;-86
2022/12/09 15:04:06;;;;;;;13.15;7.50;;;;;;;8.91;62.67;98097.02;4358192;80;28595;-87
2022/12/09 15:10:23;;;;;;;18.50;8.40;;;;;;;8.78;63.21;98098.97;4355743;81;28511;-84
2022/12/09 15:16:25;;;;;;;14.53;7.28;;;;;;;8.90;64.41;98081.48;4337083;81;28505;-80
2022/12/09 15:22:30;;;;;;;14.30;7.87;;;;;;;8.07;66.61;98087.22;4366611;81;28509;-81
2022/12/09 15:28:34;;;;;;;13.15;7.78;;;;;;;8.86;65.79;98080.33;4385249;80;28539;-81
2022/12/09 15:34:36;;;;;;;13.88;7.65;;;;;;;8.43;67.50;98079.04;4385992;80;28572;-82
2022/12/09 15:40:37;;;;;;;14.25;8.20;;;;;;;8.39;70.60;98063.17;4385776;80;28552;-82
2022/12/09 15:46:40;;;;;;;15.30;8.25;;;;;;;7.96;74.46;98047.38;4383117;80;28488;-82
2022/12/09 15:52:50;;;;;;;16.27;9.23;;;;;;;7.71;77.82;98051.73;4381508;80;28493;-85
2022/12/09 15:58:53;;;;;;;15.40;8.25;;;;;;;7.96;77.74;98027.30;4372890;80;28535;-84
2022/12/09 16:04:57;;;;;;;16.05;8.98;;;;;;;7.85;78.93;98018.80;4356791;80;28561;-90
2022/12/09 16:11:00;;;;;;;16.35;9.10;;;;;;;7.47;81.09;98012.47;4372986;80;28613;-86
2022/12/09 16:17:07;;;;;;;14.55;8.25;;;;;;;7.57;80.69;98003.82;4332220;81;28549;-87
2022/12/09 16:23:20;;;;;;;19.57;10.32;;;;;;;7.36;82.41;97987.90;4349160;81;28688;-82
2022/12/09 16:29:31;;;;;;;20.82;10.70;;;;;;;7.13;86.52;97984.20;4365827;80;28508;-90
2022/12/09 16:35:43;;;;;;;21.65;10.98;;;;;;;7.19;89.02;97969.11;4372052;80;28485;-86
2022/12/09 16:41:54;;;;;;;21.45;11.53;;;;;;;7.12;89.25;97959.85;4355183;80;28531;-87
2022/12/09 16:47:56;;;;;;;20.90;11.88;;;;;;;6.91;91.23;97947.92;4448073;79;28521;-88
2022/12/09 16:53:58;;;;;;;26.37;13.48;;;;;;;6.76;92.08;97931.83;4370455;80;28548;-90
2022/12/09 17:00:00;;;;;;;25.75;13.83;;;;;;;6.41;96.37;97931.32;4427513;78;28587;-84
2022/12/09 17:06:01;;;;;;;25.97;14.33;;;;;;;6.67;94.46;97922.57;4426453;78;28534;-88
2022/12/09 17:12:20;;;;;;;;;;;;;;;;;;;;;
2022/12/09 17:18:23;;;;;;;26.40;13.13;;;;;;;6.76;96.80;97929.16;4392435;78;28541;-89
2022/12/09 17:24:42;;;;;;;22.27;11.90;;;;;;;6.45;98.93;97931.13;4419323;78;28556;-91
2022/12/09 17:30:30;;;;;;;23.32;11.60;;;;;;;6.49;98.88;97926.16;4427488;78;28520;-87
2022/12/09 17:36:32;;;;;;;23.22;12.93;;;;;;;6.02;100.00;97922.39;4437751;79;28525;-89
2022/12/09 17:42:39;;;;;;;23.47;12.68;;;;;;;5.90;100.00;97916.19;4391999;80;28655;-89
2022/12/09 17:48:41;;;;;;;;;;;;;;;6.31;100.00;97911.06;4452105;79;28564;-87
2022/12/09 17:54:44;;;;;;;26.65;13.55;;;;;;;5.45;100.00;97910.23;4429178;79;20226;-93
2022/12/09 18:00:51;;;;;;;23.55;12.58;;;;;;;6.04;100.00;97899.47;4452760;78;28620;-81
2022/12/09 18:06:53;;;;;;;30.02;15.10;;;;;;;5.64;100.00;97898.19;4375349;81;28514;-85
2022/12/09 18:12:54;;;;;;;27.85;14.47;;;;;;;5.92;100.00;97892.22;4393100;80;28493;-81
2022/12/09 18:18:55;;;;;;;26.00;14.07;;;;;;;5.88;100.00;97891.58;4371258;81;28547;-81
2022/12/09 18:24:56;;;;;;;28.70;14.45;;;;;;;5.69;100.00;97882.33;4364716;81;28536;-81
2022/12/09 18:30:57;;;;;;;27.85;15.55;;;;;;;5.78;100.00;97875.64;4382722;80;28478;-81
2022/12/09 18:36:59;;;;;;;28.40;14.07;;;;;;;6.13;100.00;97864.22;4380314;81;28473;-82
2022/12/09 18:43:00;;;;;;;29.40;15.60;;;;;;;5.37;100.00;97863.38;4382465;80;28513;-80
2022/12/09 18:49:06;;;;;;;28.55;14.85;;;;;;;6.03;100.00;97852.48;4464106;78;28522;-81
2022/12/09 18:55:07;;;;;;;27.85;15.38;;;;;;;5.72;100.00;97853.86;4462968;78;28583;-82
2022/12/09 19:01:26;;;;;;;24.50;13.90;;;;;;;5.69;100.00;97847.12;4457183;78;28525;-81
2022/12/09 19:07:27;;;;;;;25.08;13.48;;;;;;;5.20;100.00;97833.89;4454264;78;28516;-81
2022/12/09 19:13:31;;;;;;;22.22;12.55;;;;;;;5.90;100.00;97826.83;4371364;80;28475;-80
2022/12/09 19:27:05;;;;;;;22.15;11.68;;;;;;;5.42;100.00;97814.22;4345507;81;28482;-80
2022/12/09 19:32:44;;;;;;;18.62;11.35;;;;;;;5.45;100.00;97812.92;4352181;80;28548;-81
2022/12/09 19:38:48;;;;;;;20.15;11.35;;;;;;;5.93;100.00;97794.34;4461125;78;28559;-80
2022/12/09 19:44:51;;;;;;;17.02;10.25;;;;;;;5.41;100.00;97801.90;4353446;81;28630;-81
2022/12/09 21:11:59;;;;;;;17.80;9.25;;;;;;;-149.40;100.00;119126.13;4379189;80;28549;-81
2022/12/09 21:23:31;;;;;;;14.73;8.83;;;;;;;-149.40;100.00;119126.13;4380050;80;28531;-80
2022/12/09 21:45:44;;;;;;;15.00;9.08;;;;;;;-149.40;100.00;119126.13;4411708;79;28493;-80
2022/12/09 21:51:55;;;;;;;13.50;8.10;;;;;;;5.81;100.00;97792.98;4421643;78;28582;-80
2022/12/09 22:00:20;;;;;;;16.27;9.88;;;;;;;-149.40;100.00;119126.13;4455004;78;28564;-81
2022/12/09 22:06:22;;;;;;;15.35;8.28;;;;;;;5.78;100.00;97750.78;4454029;78;28556;-82
2022/12/09 22:12:26;;;;;;;14.85;9.35;;;;;;;5.97;100.00;97754.96;4447766;78;28548;-80
2022/12/09 22:18:32;;;;;;;11.40;7.67;;;;;;;6.06;100.00;97755.44;4427593;78;28561;-82
2022/12/09 22:24:39;;;;;;;13.35;8.48;;;;;;;6.45;100.00;97740.77;4342699;80;28574;-80
2022/12/09 22:30:46;;;;;;;12.70;8.43;;;;;;;6.70;100.00;97736.45;4440608;78;28527;-83
2022/12/09 22:37:16;;;;;;;;;;;;;;;;;;;;;
2022/12/09 22:43:10;;;;;;;;;;;;;;;6.42;100.00;97730.03;3939098;85;28600;-86
2022/12/09 22:49:13;;;;;;;13.65;7.95;;;;;;;6.65;100.00;97718.98;4372920;80;20212;-86
2022/12/09 22:55:16;;;;;;;13.48;7.87;;;;;;;6.10;100.00;97717.92;4386178;80;28542;-85
2022/12/09 23:01:20;;;;;;;12.43;7.80;;;;;;;6.47;100.00;97707.96;4396463;79;28580;-85
2022/12/09 23:07:21;;;;;;;13.13;7.85;;;;;;;6.67;100.00;97706.22;4400059;79;28494;-85
2022/12/09 23:13:22;;;;;;;12.68;7.45;;;;;;;6.67;100.00;97719.04;4398343;80;28512;-83
2022/12/09 23:19:24;;;;;;;13.08;7.15;;;;;;;6.34;100.00;97711.70;4410489;79;28520;-84
2022/12/09 23:25:25;;;;;;;13.00;7.35;;;;;;;6.64;100.00;97704.83;4394738;79;28484;-82
2022/12/09 23:31:28;;;;;;;10.15;6.67;;;;;;;6.68;100.00;97693.95;4391629;79;28517;-84
2022/12/09 23:37:30;;;;;;;10.55;6.85;;;;;;;6.94;100.00;97702.44;4418138;80;28513;-82
2022/12/09 23:43:32;;;;;;;10.30;6.47;;;;;;;7.06;100.00;97702.90;4434374;79;28515;-86
2022/12/09 23:49:33;;;;;;;11.40;6.45;;;;;;;7.01;100.00;97700.95;4427500;78;28491;-88
2022/12/09 23:55:38;;;;;;;11.35;7.10;;;;;;;6.95;100.00;97695.22;4387917;80;28493;-87
